Time;durP1;ratioP1;P1;durP2;ratioP2;P2;SDS_P1;SDS_P2;PMS_P1;PMS_P2;Temp;Humidity;BMP_temperature;BMP_pressure;BME280_temperature;BME280_humidity;BME280_pressure;Samples;Min_cycle;Max_cycle;Signal;HPM_P1;HPM_P2
2023/12/14 00:00:36;;;;;;;32.13;30.42;;;;;;;;;;4998551;28;20129;-58
2023/12/14 00:03:01;;;;;;;32.63;30.92;;;;;;;;;;5001431;28;20154;-59
2023/12/14 00:05:27;;;;;;;30.92;29.27;;;;;;;;;;5002170;28;20506;-58
2023/12/14 00:07:52;;;;;;;30.92;29.27;;;;;;;;;;5001437;28;20735;-58
2023/12/14 00:10:17;;;;;;;32.53;30.65;;;;;;;;;;5000053;28;20432;-59
2023/12/14 00:12:43;;;;;;;30.75;29.13;;;;;;;;;;5001496;28;20042;-59
2023/12/14 00:15:09;;;;;;;30.50;28.90;;;;;;;;;;4999655;28;20911;-59
2023/12/14 00:17:35;;;;;;;30.40;28.80;;;;;;;;;;5003475;28;20030;-59
2023/12/14 00:20:00;;;;;;;31.95;30.10;;;;;;;;;;5003357;28;20464;-58
2023/12/14 00:22:25;;;;;;;30.35;28.73;;;;;;;;;;5000172;28;20422;-58
2023/12/14 00:24:51;;;;;;;30.98;29.27;;;;;;;;;;4996884;28;20041;-58
2023/12/14 00:27:16;;;;;;;31.00;28.80;;;;;;;;;;5000432;28;20046;-58
2023/12/14 00:29:41;;;;;;;30.90;29.30;;;;;;;;;;4999846;28;20030;-58
2023/12/14 00:32:07;;;;;;;32.65;30.73;;;;;;;;;;5001370;28;20116;-59
2023/12/14 00:34:32;;;;;;;30.17;28.58;;;;;;;;;;5002516;28;20049;-58
2023/12/14 00:36:57;;;;;;;30.30;28.60;;;;;;;;;;4999644;28;20127;-58
2023/12/14 00:39:23;;;;;;;31.02;29.33;;;;;;;;;;4999233;28;20041;-59
2023/12/14 00:41:48;;;;;;;32.20;30.50;;;;;;;;;;5000059;28;20112;-59
2023/12/14 00:44:13;;;;;;;31.63;29.83;;;;;;;;;;4998245;28;20101;-59
2023/12/14 00:46:39;;;;;;;30.45;28.85;;;;;;;;;;4999104;28;20026;-60
2023/12/14 00:49:04;;;;;;;30.95;29.27;;;;;;;;;;5018015;28;20152;-59
2023/12/14 00:51:30;;;;;;;31.05;29.40;;;;;;;;;;5001460;28;20053;-59
2023/12/14 00:53:55;;;;;;;31.55;29.85;;;;;;;;;;4997891;28;20057;-59
2023/12/14 00:56:20;;;;;;;29.35;27.80;;;;;;;;;;5000256;28;20105;-59
2023/12/14 00:58:46;;;;;;;31.17;29.55;;;;;;;;;;4998108;28;20042;-58
2023/12/14 01:01:11;;;;;;;31.00;29.30;;;;;;;;;;4998603;28;20491;-59
2023/12/14 01:03:36;;;;;;;30.48;28.88;;;;;;;;;;5000208;28;20025;-59
2023/12/14 01:06:02;;;;;;;32.63;30.83;;;;;;;;;;5000838;28;20124;-59
2023/12/14 01:08:27;;;;;;;33.63;31.83;;;;;;;;;;5000649;28;20068;-59
2023/12/14 01:10:52;;;;;;;35.42;33.63;;;;;;;;;;4999571;28;20030;-58
2023/12/14 01:13:18;;;;;;;38.90;36.80;;;;;;;;;;5000686;28;20030;-59
2023/12/14 01:15:43;;;;;;;36.40;34.50;;;;;;;;;;4997355;28;20377;-59
2023/12/14 01:18:08;;;;;;;35.42;33.53;;;;;;;;;;5004768;28;20048;-59
2023/12/14 01:20:34;;;;;;;33.92;32.13;;;;;;;;;;4999602;28;20052;-59
2023/12/14 01:22:59;;;;;;;33.60;31.70;;;;;;;;;;4997974;28;20060;-58
2023/12/14 01:25:24;;;;;;;34.25;32.45;;;;;;;;;;4998957;28;20029;-58
2023/12/14 01:27:50;;;;;;;34.22;32.08;;;;;;;;;;4999712;28;20216;-59
2023/12/14 01:30:15;;;;;;;39.28;36.67;;;;;;;;;;4998042;28;20044;-58
2023/12/14 01:32:40;;;;;;;37.50;35.17;;;;;;;;;;4999439;28;20057;-58
2023/12/14 01:35:06;;;;;;;30.75;29.05;;;;;;;;;;4998231;28;20080;-59
2023/12/14 01:37:31;;;;;;;30.55;28.95;;;;;;;;;;5000918;28;20069;-59
2023/12/14 01:39:57;;;;;;;28.63;27.08;;;;;;;;;;4996767;28;20066;-59
2023/12/14 01:42:22;;;;;;;30.02;28.42;;;;;;;;;;4997793;28;20374;-59
2023/12/14 01:44:47;;;;;;;28.58;27.08;;;;;;;;;;4996991;28;20041;-59
2023/12/14 01:47:13;;;;;;;27.83;26.38;;;;;;;;;;5000507;28;20053;-58
2023/12/14 01:49:38;;;;;;;26.92;25.48;;;;;;;;;;4999114;28;20455;-58
2023/12/14 01:52:04;;;;;;;27.98;26.48;;;;;;;;;;4997584;28;21392;-58
2023/12/14 01:54:29;;;;;;;25.63;24.27;;;;;;;;;;4999190;28;20117;-59
2023/12/14 01:56:55;;;;;;;27.55;26.05;;;;;;;;;;4998973;28;20030;-59
2023/12/14 01:59:20;;;;;;;27.42;25.92;;;;;;;;;;4997453;28;20128;-59
2023/12/14 02:01:51;;;;;;;30.17;28.02;;;;;;;;;;4998768;28;20052;-58
2023/12/14 02:04:17;;;;;;;;;;;;;;;;;;4999530;28;20099;-58
2023/12/14 02:06:42;;;;;;;30.48;28.77;;;;;;;;;;5000157;28;19921;-57
2023/12/14 02:09:07;;;;;;;29.95;28.35;;;;;;;;;;4997125;28;20459;-57
2023/12/14 02:11:33;;;;;;;26.95;25.40;;;;;;;;;;5000513;28;20128;-58
2023/12/14 02:14:04;;;;;;;28.52;26.92;;;;;;;;;;4997112;28;20030;-57
2023/12/14 02:16:29;;;;;;;28.45;26.88;;;;;;;;;;5000744;28;20041;-58
2023/12/14 02:18:54;;;;;;;28.00;26.50;;;;;;;;;;4998986;28;20455;-57
2023/12/14 02:21:19;;;;;;;29.75;28.13;;;;;;;;;;4999531;28;20022;-58
2023/12/14 02:23:45;;;;;;;29.35;27.55;;;;;;;;;;4996964;28;20562;-57
2023/12/14 02:26:14;;;;;;;32.35;30.45;;;;;;;;;;4997023;28;20041;-57
2023/12/14 02:28:39;;;;;;;32.15;30.38;;;;;;;;;;4998565;28;20038;-57
2023/12/14 02:31:05;;;;;;;30.90;29.17;;;;;;;;;;4997922;28;20112;-57
2023/12/14 02:33:30;;;;;;;30.05;28.35;;;;;;;;;;4997276;28;20585;-58
2023/12/14 02:35:56;;;;;;;32.63;30.92;;;;;;;;;;4997039;28;20177;-58
2023/12/14 02:38:21;;;;;;;31.88;30.15;;;;;;;;;;4998575;28;20353;-57
2023/12/14 02:40:46;;;;;;;30.23;28.52;;;;;;;;;;5001168;28;20049;-58
2023/12/14 02:43:12;;;;;;;32.42;30.70;;;;;;;;;;4995395;28;20096;-57
2023/12/14 02:45:37;;;;;;;33.28;31.40;;;;;;;;;;4998188;28;20042;-56
2023/12/14 02:48:03;;;;;;;31.60;29.90;;;;;;;;;;4997478;28;20041;-57
2023/12/14 02:50:28;;;;;;;29.80;28.20;;;;;;;;;;4997609;28;20040;-58
2023/12/14 02:52:54;;;;;;;31.42;29.73;;;;;;;;;;4995329;28;20037;-57
2023/12/14 02:55:19;;;;;;;31.75;30.05;;;;;;;;;;4996563;28;20037;-57
2023/12/14 02:57:44;;;;;;;30.17;28.58;;;;;;;;;;5000105;28;20491;-57
2023/12/14 03:00:10;;;;;;;31.52;29.85;;;;;;;;;;4995879;28;20026;-58
2023/12/14 03:02:36;;;;;;;30.77;29.17;;;;;;;;;;5000250;28;20345;-57
2023/12/14 03:05:02;;;;;;;32.58;30.77;;;;;;;;;;4994692;28;20038;-58
2023/12/14 03:07:27;;;;;;;33.63;31.73;;;;;;;;;;5000366;28;20037;-57
2023/12/14 03:09:53;;;;;;;31.02;29.40;;;;;;;;;;4998501;28;20220;-57
2023/12/14 03:12:18;;;;;;;31.60;29.85;;;;;;;;;;4998260;28;20048;-58
2023/12/14 03:14:43;;;;;;;31.98;30.27;;;;;;;;;;4997938;28;20046;-57
2023/12/14 03:17:12;;;;;;;30.33;28.63;;;;;;;;;;4995386;28;20213;-58
2023/12/14 03:19:39;;;;;;;31.40;29.75;;;;;;;;;;5000466;28;20053;-58
2023/12/14 03:22:04;;;;;;;33.80;31.90;;;;;;;;;;5000634;28;20049;-58
2023/12/14 03:24:30;;;;;;;33.30;31.42;;;;;;;;;;5000677;28;20026;-58
2023/12/14 03:26:55;;;;;;;32.38;30.58;;;;;;;;;;5002944;28;20030;-58
2023/12/14 03:29:21;;;;;;;31.50;29.80;;;;;;;;;;4999564;28;20412;-58
2023/12/14 03:31:46;;;;;;;31.20;29.55;;;;;;;;;;4999588;28;20494;-58
2023/12/14 03:34:12;;;;;;;32.63;30.85;;;;;;;;;;4999552;28;20077;-58
2023/12/14 03:36:37;;;;;;;31.85;30.13;;;;;;;;;;5001232;28;20034;-57
2023/12/14 03:39:03;;;;;;;33.70;31.85;;;;;;;;;;4999818;28;20029;-57
2023/12/14 03:41:28;;;;;;;31.08;29.38;;;;;;;;;;5002871;28;20115;-57
2023/12/14 03:43:54;;;;;;;34.72;32.90;;;;;;;;;;4999082;28;20054;-57
2023/12/14 03:46:19;;;;;;;33.63;31.75;;;;;;;;;;5002493;28;20030;-58
2023/12/14 03:48:44;;;;;;;32.22;30.42;;;;;;;;;;4999138;28;20443;-58
2023/12/14 03:51:10;;;;;;;32.38;30.67;;;;;;;;;;5000354;28;20041;-58
2023/12/14 03:53:35;;;;;;;32.30;30.55;;;;;;;;;;5000181;28;20123;-58
2023/12/14 03:56:00;;;;;;;33.55;31.75;;;;;;;;;;5002452;28;20057;-57
2023/12/14 03:58:26;;;;;;;32.17;30.48;;;;;;;;;;4997181;28;20042;-57
2023/12/14 04:00:52;;;;;;;34.20;32.35;;;;;;;;;;5000940;28;20054;-58
2023/12/14 04:03:18;;;;;;;32.47;30.73;;;;;;;;;;4999889;28;20030;-57
2023/12/14 04:05:44;;;;;;;32.90;31.10;;;;;;;;;;5002536;28;20169;-59
2023/12/14 04:08:09;;;;;;;31.40;29.70;;;;;;;;;;4999443;28;20181;-58
2023/12/14 04:10:35;;;;;;;31.98;30.27;;;;;;;;;;4999517;28;20349;-58
2023/12/14 04:13:00;;;;;;;31.50;29.80;;;;;;;;;;4999471;28;20048;-57
2023/12/14 04:15:25;;;;;;;31.15;29.40;;;;;;;;;;4999093;28;20046;-57
2023/12/14 04:17:51;;;;;;;30.10;28.50;;;;;;;;;;5003020;28;20042;-57
2023/12/14 04:20:16;;;;;;;30.88;29.15;;;;;;;;;;4999984;28;20475;-58
2023/12/14 04:22:44;;;;;;;33.25;31.45;;;;;;;;;;5001198;28;20034;-58
2023/12/14 04:25:09;;;;;;;30.33;28.73;;;;;;;;;;5000805;28;20033;-57
2023/12/14 04:27:35;;;;;;;32.03;30.35;;;;;;;;;;5000392;28;20048;-58
2023/12/14 04:30:00;;;;;;;32.40;30.70;;;;;;;;;;5029713;28;20216;-58
2023/12/14 04:32:25;;;;;;;30.05;28.05;;;;;;;;;;5000834;28;20042;-58
2023/12/14 04:34:51;;;;;;;29.88;27.98;;;;;;;;;;4999339;28;20026;-58
2023/12/14 04:37:16;;;;;;;29.70;28.10;;;;;;;;;;5001061;28;20392;-58
2023/12/14 04:39:42;;;;;;;31.52;29.83;;;;;;;;;;5001591;28;20180;-59
2023/12/14 04:42:07;;;;;;;30.10;28.50;;;;;;;;;;4998893;28;20045;-58
2023/12/14 04:44:33;;;;;;;29.92;28.25;;;;;;;;;;4995036;28;20058;-58
2023/12/14 04:46:58;;;;;;;28.85;27.35;;;;;;;;;;5001709;28;20499;-57
2023/12/14 04:49:24;;;;;;;32.65;29.95;;;;;;;;;;4998795;28;20392;-57
2023/12/14 04:51:49;;;;;;;29.65;28.05;;;;;;;;;;4999416;28;20038;-57
2023/12/14 04:54:15;;;;;;;29.23;27.63;;;;;;;;;;4999670;28;20096;-57
2023/12/14 04:56:41;;;;;;;31.08;29.38;;;;;;;;;;5000045;28;20041;-58
2023/12/14 04:59:06;;;;;;;29.05;27.13;;;;;;;;;;4999323;28;20383;-58
2023/12/14 05:01:32;;;;;;;30.67;29.00;;;;;;;;;;5003569;28;20137;-58
2023/12/14 05:03:57;;;;;;;28.63;27.13;;;;;;;;;;4996850;28;20030;-58
2023/12/14 05:06:22;;;;;;;28.92;27.42;;;;;;;;;;5000821;28;20129;-58
2023/12/14 05:08:48;;;;;;;32.60;30.90;;;;;;;;;;4998230;28;20112;-58
2023/12/14 05:11:13;;;;;;;30.55;28.90;;;;;;;;;;4998291;28;20500;-58
2023/12/14 05:13:39;;;;;;;31.23;29.52;;;;;;;;;;5001342;28;20108;-58
2023/12/14 05:16:05;;;;;;;29.83;27.95;;;;;;;;;;4999634;28;20148;-58
2023/12/14 05:18:30;;;;;;;31.58;29.80;;;;;;;;;;4999903;28;20125;-58
2023/12/14 05:20:56;;;;;;;28.98;27.40;;;;;;;;;;4999318;28;20061;-58
2023/12/14 05:23:21;;;;;;;27.55;26.13;;;;;;;;;;4996465;28;20053;-58
2023/12/14 05:25:47;;;;;;;32.25;30.55;;;;;;;;;;5002895;28;20464;-58
2023/12/14 05:28:13;;;;;;;28.80;27.20;;;;;;;;;;4998465;28;20061;-58
2023/12/14 05:30:38;;;;;;;30.17;28.48;;;;;;;;;;4999565;28;20041;-58
2023/12/14 05:33:04;;;;;;;28.65;27.05;;;;;;;;;;4999058;28;20069;-58
2023/12/14 05:35:29;;;;;;;27.27;25.77;;;;;;;;;;4997520;28;20034;-58
2023/12/14 05:37:54;;;;;;;28.65;27.15;;;;;;;;;;4995827;28;20034;-58
2023/12/14 05:40:20;;;;;;;29.48;27.90;;;;;;;;;;4995265;28;20141;-58
2023/12/14 05:42:45;;;;;;;28.25;26.75;;;;;;;;;;4999411;28;20036;-58
2023/12/14 05:45:11;;;;;;;28.13;26.63;;;;;;;;;;5000872;28;20049;-58
2023/12/14 05:47:37;;;;;;;28.30;26.58;;;;;;;;;;5000303;28;20037;-58
2023/12/14 05:50:03;;;;;;;28.00;26.45;;;;;;;;;;4999331;28;20038;-58
2023/12/14 05:52:29;;;;;;;28.42;26.83;;;;;;;;;;5011839;28;20221;-58
2023/12/14 05:54:54;;;;;;;31.48;29.38;;;;;;;;;;4998583;28;20121;-58
2023/12/14 05:57:19;;;;;;;28.25;26.75;;;;;;;;;;4999137;28;20375;-58
2023/12/14 05:59:45;;;;;;;29.80;28.10;;;;;;;;;;4995804;28;20053;-58
2023/12/14 06:02:10;;;;;;;28.77;27.27;;;;;;;;;;4999468;28;20116;-58
2023/12/14 06:04:36;;;;;;;28.45;26.77;;;;;;;;;;4998487;28;20448;-58
2023/12/14 06:07:01;;;;;;;27.25;25.75;;;;;;;;;;4999621;28;20033;-59
2023/12/14 06:09:33;;;;;;;29.50;27.90;;;;;;;;;;4998801;28;20879;-58
2023/12/14 06:12:01;;;;;;;27.70;26.20;;;;;;;;;;4982189;28;20034;-58
2023/12/14 06:14:26;;;;;;;31.02;29.33;;;;;;;;;;4998856;28;20051;-58
2023/12/14 06:16:52;;;;;;;30.15;28.33;;;;;;;;;;4998881;28;20038;-58
2023/12/14 06:19:17;;;;;;;31.45;28.50;;;;;;;;;;5001583;28;20087;-58
2023/12/14 06:21:42;;;;;;;28.55;27.02;;;;;;;;;;4997971;28;20042;-58
2023/12/14 06:24:08;;;;;;;29.83;28.13;;;;;;;;;;4998801;28;20367;-58
2023/12/14 06:26:33;;;;;;;28.70;27.20;;;;;;;;;;5000005;28;20029;-58
2023/12/14 06:28:58;;;;;;;30.42;28.83;;;;;;;;;;4997994;28;20037;-58
2023/12/14 06:31:23;;;;;;;28.73;27.10;;;;;;;;;;4985554;28;20037;-58
2023/12/14 06:33:49;;;;;;;29.45;27.85;;;;;;;;;;5000005;28;20049;-58
2023/12/14 06:36:18;;;;;;;29.90;28.20;;;;;;;;;;4997959;28;20728;-58
2023/12/14 06:38:44;;;;;;;28.63;27.10;;;;;;;;;;5000711;28;20036;-58
2023/12/14 06:41:18;;;;;;;29.10;27.45;;;;;;;;;;4997432;28;20035;-58
2023/12/14 06:43:44;;;;;;;30.25;28.23;;;;;;;;;;4996357;28;20033;-58
2023/12/14 06:46:09;;;;;;;28.65;27.05;;;;;;;;;;4996773;28;20376;-58
2023/12/14 06:48:34;;;;;;;29.55;27.95;;;;;;;;;;5000017;28;20789;-58
2023/12/14 06:51:00;;;;;;;29.30;27.60;;;;;;;;;;4998632;28;20030;-58
2023/12/14 06:53:25;;;;;;;28.98;27.35;;;;;;;;;;5000339;28;20040;-58
2023/12/14 06:55:50;;;;;;;28.50;26.83;;;;;;;;;;5002797;28;20048;-58
2023/12/14 06:58:17;;;;;;;31.63;29.63;;;;;;;;;;4999753;28;20041;-58
2023/12/14 07:00:42;;;;;;;30.67;28.88;;;;;;;;;;5002650;28;20069;-58
2023/12/14 07:03:07;;;;;;;28.38;26.77;;;;;;;;;;5001378;28;20022;-59
2023/12/14 07:05:33;;;;;;;28.23;26.70;;;;;;;;;;5001886;28;20372;-58
2023/12/14 07:07:58;;;;;;;30.27;28.63;;;;;;;;;;5001101;28;20034;-58
2023/12/14 07:10:24;;;;;;;26.33;24.92;;;;;;;;;;5001933;28;20045;-59
2023/12/14 07:12:50;;;;;;;28.17;26.58;;;;;;;;;;5002662;28;20053;-58
2023/12/14 07:15:15;;;;;;;30.67;28.98;;;;;;;;;;4995875;28;20034;-58
2023/12/14 07:17:41;;;;;;;31.60;29.83;;;;;;;;;;5002161;28;20467;-59
2023/12/14 07:20:07;;;;;;;30.90;29.20;;;;;;;;;;5001261;28;20084;-58
2023/12/14 07:22:32;;;;;;;29.17;27.65;;;;;;;;;;4999021;28;20103;-58
2023/12/14 07:24:58;;;;;;;28.15;26.65;;;;;;;;;;5000261;28;20448;-58
2023/12/14 07:27:23;;;;;;;28.20;26.50;;;;;;;;;;4999594;28;20038;-58
2023/12/14 07:29:49;;;;;;;29.35;27.75;;;;;;;;;;4998633;28;20119;-58
2023/12/14 07:32:14;;;;;;;30.00;28.35;;;;;;;;;;5000187;28;20030;-58
2023/12/14 07:34:39;;;;;;;28.75;27.20;;;;;;;;;;5000041;28;20033;-58
2023/12/14 07:37:05;;;;;;;29.63;27.92;;;;;;;;;;4999467;28;20034;-58
2023/12/14 07:39:31;;;;;;;27.55;26.05;;;;;;;;;;4999667;28;20030;-58
2023/12/14 07:41:56;;;;;;;28.08;26.38;;;;;;;;;;4997875;28;20048;-57
2023/12/14 07:44:22;;;;;;;30.30;28.63;;;;;;;;;;4999884;28;20801;-59
2023/12/14 07:46:48;;;;;;;28.38;26.77;;;;;;;;;;5000987;28;20038;-58
2023/12/14 07:49:13;;;;;;;30.00;28.33;;;;;;;;;;4999851;28;20084;-56
2023/12/14 07:51:38;;;;;;;28.88;27.17;;;;;;;;;;4999916;28;20041;-58
2023/12/14 07:54:04;;;;;;;27.80;26.30;;;;;;;;;;4998630;28;20124;-58
2023/12/14 07:56:29;;;;;;;30.33;28.58;;;;;;;;;;4987983;28;20045;-58
2023/12/14 07:58:55;;;;;;;28.83;27.30;;;;;;;;;;4999270;28;20076;-58
2023/12/14 08:01:20;;;;;;;27.77;26.27;;;;;;;;;;5001661;28;20041;-59
2023/12/14 08:03:46;;;;;;;27.63;25.98;;;;;;;;;;4999425;28;20034;-58
2023/12/14 08:06:11;;;;;;;27.50;25.92;;;;;;;;;;4998954;28;20034;-58
2023/12/14 08:08:37;;;;;;;29.33;27.63;;;;;;;;;;4998406;28;20096;-58
2023/12/14 08:11:03;;;;;;;27.48;25.38;;;;;;;;;;4997831;28;20037;-58
2023/12/14 08:13:29;;;;;;;38.53;27.92;;;;;;;;;;5000140;28;20049;-58
2023/12/14 08:15:55;;;;;;;30.83;29.05;;;;;;;;;;5000941;28;20034;-58
2023/12/14 08:18:20;;;;;;;29.60;27.95;;;;;;;;;;5001298;28;20252;-58
2023/12/14 08:20:45;;;;;;;27.40;25.90;;;;;;;;;;5001163;28;20049;-58
2023/12/14 08:23:11;;;;;;;29.42;27.73;;;;;;;;;;5000693;28;20361;-58
2023/12/14 08:25:36;;;;;;;29.67;28.00;;;;;;;;;;5001220;28;20061;-58
2023/12/14 08:28:01;;;;;;;29.13;27.48;;;;;;;;;;4999426;28;20061;-58
2023/12/14 08:30:27;;;;;;;31.17;29.48;;;;;;;;;;4997983;28;20423;-57
2023/12/14 08:32:52;;;;;;;27.00;25.55;;;;;;;;;;4999693;28;20057;-58
2023/12/14 08:35:17;;;;;;;31.50;29.70;;;;;;;;;;5000520;28;20061;-58
2023/12/14 08:37:43;;;;;;;29.15;27.45;;;;;;;;;;4998373;28;20065;-58
2023/12/14 08:40:09;;;;;;;29.80;28.10;;;;;;;;;;4998712;28;20446;-59
2023/12/14 08:42:35;;;;;;;29.92;28.23;;;;;;;;;;4997859;28;20038;-58
2023/12/14 08:45:00;;;;;;;27.98;26.48;;;;;;;;;;4999006;28;20033;-58
2023/12/14 08:47:26;;;;;;;29.20;27.60;;;;;;;;;;5000642;28;20030;-58
2023/12/14 08:49:51;;;;;;;28.25;26.75;;;;;;;;;;5002047;28;20040;-58
2023/12/14 08:52:17;;;;;;;30.15;28.55;;;;;;;;;;5000723;28;20034;-58
2023/12/14 08:54:44;;;;;;;29.70;28.10;;;;;;;;;;4999705;28;20105;-58
2023/12/14 08:57:10;;;;;;;30.73;29.13;;;;;;;;;;4999609;28;20061;-58
2023/12/14 08:59:36;;;;;;;31.75;28.77;;;;;;;;;;4999602;28;20053;-58
2023/12/14 09:02:01;;;;;;;28.63;27.02;;;;;;;;;;4999902;28;20029;-58
2023/12/14 09:04:26;;;;;;;29.65;27.40;;;;;;;;;;4998249;28;20022;-58
2023/12/14 09:06:52;;;;;;;29.00;27.20;;;;;;;;;;4996244;28;20117;-58
2023/12/14 09:09:18;;;;;;;29.58;27.98;;;;;;;;;;4998235;28;20027;-58
2023/12/14 09:11:44;;;;;;;29.83;28.23;;;;;;;;;;4998525;28;20036;-58
2023/12/14 09:14:09;;;;;;;29.75;28.15;;;;;;;;;;4999934;28;20460;-58
2023/12/14 09:16:35;;;;;;;31.10;29.38;;;;;;;;;;4997876;28;20487;-58
2023/12/14 09:19:00;;;;;;;31.58;29.48;;;;;;;;;;5001902;28;20049;-58
2023/12/14 09:21:26;;;;;;;31.90;30.02;;;;;;;;;;4998174;28;20475;-59
2023/12/14 09:23:53;;;;;;;30.90;29.20;;;;;;;;;;4995710;28;20040;-58
2023/12/14 09:26:18;;;;;;;32.42;30.30;;;;;;;;;;5002876;28;20034;-58
2023/12/14 09:28:44;;;;;;;32.92;31.15;;;;;;;;;;4996215;28;20053;-58
2023/12/14 09:31:09;;;;;;;29.77;27.95;;;;;;;;;;4999635;28;20045;-58
2023/12/14 09:33:35;;;;;;;30.90;28.73;;;;;;;;;;4999092;28;20034;-58
2023/12/14 09:36:00;;;;;;;31.85;29.90;;;;;;;;;;4997780;28;20034;-58
2023/12/14 09:38:32;;;;;;;31.42;29.73;;;;;;;;;;5059126;28;20395;-57
2023/12/14 09:40:57;;;;;;;32.08;30.17;;;;;;;;;;5049186;28;20103;-57
2023/12/14 09:43:23;;;;;;;30.88;29.13;;;;;;;;;;5043445;28;20448;-57
2023/12/14 09:45:49;;;;;;;32.88;31.05;;;;;;;;;;5045894;28;20112;-58
2023/12/14 09:48:16;;;;;;;30.92;29.23;;;;;;;;;;5048202;28;20045;-58
2023/12/14 09:50:42;;;;;;;34.15;31.17;;;;;;;;;;5043318;28;20500;-57
2023/12/14 09:53:08;;;;;;;30.73;29.02;;;;;;;;;;5041284;28;20033;-57
2023/12/14 09:55:33;;;;;;;30.48;28.77;;;;;;;;;;5047212;28;20470;-57
2023/12/14 09:57:59;;;;;;;30.83;29.13;;;;;;;;;;5045217;28;20025;-57
2023/12/14 10:00:35;;;;;;;30.83;29.15;;;;;;;;;;5040265;28;20060;-58
2023/12/14 10:03:21;;;;;;;33.95;32.13;;;;;;;;;;5044953;28;20037;-57
2023/12/14 10:05:48;;;;;;;31.95;30.25;;;;;;;;;;5039772;28;20037;-60
2023/12/14 10:08:17;;;;;;;33.08;30.95;;;;;;;;;;5045526;28;20045;-60
2023/12/14 10:10:43;;;;;;;31.63;29.88;;;;;;;;;;5043379;28;20056;-60
2023/12/14 10:13:09;;;;;;;31.27;29.38;;;;;;;;;;5044590;28;20594;-60
2023/12/14 10:15:41;;;;;;;31.67;29.98;;;;;;;;;;5044324;28;20043;-60
2023/12/14 10:18:07;;;;;;;28.50;27.00;;;;;;;;;;5048071;28;20501;-58
2023/12/14 10:20:32;;;;;;;30.33;28.58;;;;;;;;;;5043107;28;20033;-57
2023/12/14 10:22:58;;;;;;;35.15;33.30;;;;;;;;;;5045366;28;20090;-58
2023/12/14 10:25:23;;;;;;;33.92;32.13;;;;;;;;;;5044916;28;20059;-57
2023/12/14 10:27:54;;;;;;;33.30;31.52;;;;;;;;;;5044445;28;20056;-60
2023/12/14 10:30:20;;;;;;;34.70;32.67;;;;;;;;;;5042932;28;20128;-60
2023/12/14 10:32:49;;;;;;;30.75;29.15;;;;;;;;;;5039749;28;20448;-59
2023/12/14 10:35:19;;;;;;;33.55;31.75;;;;;;;;;;5041878;28;20092;-59
2023/12/14 10:37:46;;;;;;;34.17;32.38;;;;;;;;;;5041919;28;20120;-60
2023/12/14 10:40:14;;;;;;;33.10;31.23;;;;;;;;;;5043034;28;20033;-59
2023/12/14 10:42:43;;;;;;;37.55;32.10;;;;;;;;;;5042903;28;20510;-59
2023/12/14 10:45:11;;;;;;;31.17;29.48;;;;;;;;;;5057245;28;20033;-60
2023/12/14 10:47:40;;;;;;;33.10;31.30;;;;;;;;;;5045707;28;20030;-60
2023/12/14 10:50:06;;;;;;;29.70;28.00;;;;;;;;;;5025690;28;20037;-60
2023/12/14 10:52:35;;;;;;;28.95;27.35;;;;;;;;;;5033092;28;20426;-60
2023/12/14 10:55:05;;;;;;;31.80;30.10;;;;;;;;;;5031539;28;20104;-60
2023/12/14 10:57:32;;;;;;;29.92;28.33;;;;;;;;;;5028514;28;20042;-60
2023/12/14 11:00:02;;;;;;;30.55;28.90;;;;;;;;;;5030680;28;20044;-60
2023/12/14 11:02:27;;;;;;;30.40;28.63;;;;;;;;;;5031095;28;20037;-60
2023/12/14 11:04:58;;;;;;;30.25;28.60;;;;;;;;;;5025441;28;20033;-60
2023/12/14 11:07:55;;;;;;;29.77;28.17;;;;;;;;;;5029973;28;20056;-59
2023/12/14 11:10:43;;;;;;;31.67;29.98;;;;;;;;;;5035611;28;20402;-59
2023/12/14 11:13:13;;;;;;;30.92;29.20;;;;;;;;;;5025910;28;20026;-60
2023/12/14 11:15:51;;;;;;;31.17;29.48;;;;;;;;;;5028574;28;20041;-59
2023/12/14 11:18:25;;;;;;;30.42;28.83;;;;;;;;;;5029585;28;20095;-59
2023/12/14 11:20:54;;;;;;;31.77;30.05;;;;;;;;;;5027940;28;20057;-58
2023/12/14 11:23:25;;;;;;;29.92;28.33;;;;;;;;;;5027652;28;20033;-58
2023/12/14 11:25:56;;;;;;;31.10;29.40;;;;;;;;;;5029957;28;20037;-58
2023/12/14 11:28:22;;;;;;;29.50;27.90;;;;;;;;;;5028726;28;20037;-58
2023/12/14 11:30:48;;;;;;;33.55;31.75;;;;;;;;;;5030874;28;20363;-58
2023/12/14 11:33:15;;;;;;;31.85;29.83;;;;;;;;;;5032738;28;20056;-58
2023/12/14 11:35:40;;;;;;;31.95;30.15;;;;;;;;;;5028686;28;20045;-58
2023/12/14 11:38:13;;;;;;;33.22;31.38;;;;;;;;;;5029500;28;20025;-58
2023/12/14 11:40:44;;;;;;;32.75;31.00;;;;;;;;;;5031769;28;20029;-58
2023/12/14 11:43:10;;;;;;;34.40;32.60;;;;;;;;;;5030938;28;20107;-58
2023/12/14 11:45:37;;;;;;;31.67;30.02;;;;;;;;;;5033383;28;20036;-58
2023/12/14 11:48:06;;;;;;;35.50;33.63;;;;;;;;;;5035585;28;20474;-58
2023/12/14 11:50:35;;;;;;;36.25;34.28;;;;;;;;;;5026034;28;20104;-59
2023/12/14 11:53:04;;;;;;;33.88;31.98;;;;;;;;;;5027257;28;20489;-59
2023/12/14 11:55:31;;;;;;;37.35;35.35;;;;;;;;;;5022650;28;20041;-58
2023/12/14 11:57:57;;;;;;;33.85;32.05;;;;;;;;;;5029585;28;20033;-58
2023/12/14 12:00:28;;;;;;;32.05;30.35;;;;;;;;;;5028212;28;20073;-58
2023/12/14 12:03:15;;;;;;;31.10;29.40;;;;;;;;;;5028434;28;20028;-59
2023/12/14 12:05:45;;;;;;;29.83;28.25;;;;;;;;;;5030772;28;20037;-59
2023/12/14 12:08:12;;;;;;;30.02;28.42;;;;;;;;;;5022796;28;20039;-59
2023/12/14 12:10:39;;;;;;;33.17;31.38;;;;;;;;;;5021234;28;20056;-59
2023/12/14 12:13:12;;;;;;;30.63;29.02;;;;;;;;;;5028813;28;20137;-58
2023/12/14 12:15:38;;;;;;;33.65;31.85;;;;;;;;;;5044098;28;20033;-58
2023/12/14 12:18:06;;;;;;;31.40;29.80;;;;;;;;;;5029562;28;20032;-58
2023/12/14 12:20:32;;;;;;;27.95;26.35;;;;;;;;;;5026128;28;20041;-59
2023/12/14 12:22:57;;;;;;;28.90;27.35;;;;;;;;;;5028445;28;20048;-59
2023/12/14 12:25:23;;;;;;;28.08;26.55;;;;;;;;;;5024001;28;20539;-58
2023/12/14 12:27:48;;;;;;;27.10;25.65;;;;;;;;;;5027124;28;20037;-59
2023/12/14 12:30:14;;;;;;;28.50;27.00;;;;;;;;;;5027057;28;20022;-59
2023/12/14 12:32:40;;;;;;;29.85;28.25;;;;;;;;;;5021330;28;20076;-59
2023/12/14 12:35:06;;;;;;;28.60;27.10;;;;;;;;;;5027309;28;20411;-58
2023/12/14 12:37:32;;;;;;;27.90;26.40;;;;;;;;;;5023969;28;20067;-59
2023/12/14 12:39:57;;;;;;;28.48;26.98;;;;;;;;;;5026600;28;20042;-59
2023/12/14 12:42:22;;;;;;;27.73;26.23;;;;;;;;;;5031425;28;20042;-59
2023/12/14 12:44:48;;;;;;;28.35;26.83;;;;;;;;;;5025796;28;20482;-59
2023/12/14 12:47:13;;;;;;;29.40;27.80;;;;;;;;;;5026477;28;20036;-58
2023/12/14 12:49:38;;;;;;;29.65;28.05;;;;;;;;;;5022825;28;20083;-60
2023/12/14 12:52:04;;;;;;;28.45;26.85;;;;;;;;;;5023110;28;20236;-58
2023/12/14 12:54:31;;;;;;;27.00;25.60;;;;;;;;;;5027673;28;20493;-58
2023/12/14 12:56:56;;;;;;;27.95;26.38;;;;;;;;;;5028846;28;20017;-59
2023/12/14 12:59:22;;;;;;;28.42;26.92;;;;;;;;;;5024416;28;20460;-59
2023/12/14 13:01:47;;;;;;;26.90;25.50;;;;;;;;;;5028196;28;20474;-59
2023/12/14 13:04:20;;;;;;;27.10;25.70;;;;;;;;;;5025841;28;20146;-59
2023/12/14 13:06:48;;;;;;;27.27;25.88;;;;;;;;;;5026372;28;20114;-59
2023/12/14 13:09:14;;;;;;;28.95;27.20;;;;;;;;;;5026793;28;20060;-60
2023/12/14 13:11:39;;;;;;;29.58;27.98;;;;;;;;;;5029430;28;20037;-59
2023/12/14 13:14:07;;;;;;;28.88;27.38;;;;;;;;;;5027793;28;20049;-59
2023/12/14 13:16:34;;;;;;;27.67;26.23;;;;;;;;;;5029279;28;20372;-59
2023/12/14 13:18:59;;;;;;;27.48;25.98;;;;;;;;;;5026896;28;20451;-59
2023/12/14 13:21:24;;;;;;;30.33;28.73;;;;;;;;;;5024263;28;20034;-59
2023/12/14 13:23:50;;;;;;;25.83;24.48;;;;;;;;;;5030782;28;20025;-59
2023/12/14 13:26:16;;;;;;;26.85;25.38;;;;;;;;;;5035821;28;20055;-58
2023/12/14 13:28:41;;;;;;;29.17;27.58;;;;;;;;;;5027852;28;20056;-59
2023/12/14 13:31:07;;;;;;;27.95;26.45;;;;;;;;;;5030894;28;20037;-59
2023/12/14 13:33:33;;;;;;;27.40;25.98;;;;;;;;;;5030340;28;20348;-59
2023/12/14 13:35:58;;;;;;;28.52;27.02;;;;;;;;;;5026117;28;20112;-59
2023/12/14 13:38:24;;;;;;;27.80;26.30;;;;;;;;;;5024668;28;20475;-58
2023/12/14 13:40:50;;;;;;;29.27;27.75;;;;;;;;;;5028341;28;20033;-59
2023/12/14 13:43:15;;;;;;;29.80;28.20;;;;;;;;;;5028933;28;20475;-58
2023/12/14 13:45:41;;;;;;;29.48;27.77;;;;;;;;;;5026063;28;20068;-59
2023/12/14 13:48:08;;;;;;;27.45;25.75;;;;;;;;;;5025260;28;20347;-59
2023/12/14 13:50:34;;;;;;;28.17;26.67;;;;;;;;;;5024682;28;20033;-59
2023/12/14 13:53:00;;;;;;;27.33;25.92;;;;;;;;;;5025478;28;20033;-59
2023/12/14 13:55:25;;;;;;;28.88;27.27;;;;;;;;;;5028789;28;20106;-59
2023/12/14 13:57:51;;;;;;;27.95;26.25;;;;;;;;;;5027564;28;20033;-59
2023/12/14 14:00:18;;;;;;;30.38;28.77;;;;;;;;;;5027156;28;20041;-58
2023/12/14 14:02:44;;;;;;;28.17;26.67;;;;;;;;;;5027594;28;20474;-59
2023/12/14 14:05:09;;;;;;;30.80;29.20;;;;;;;;;;5029417;28;20055;-59
2023/12/14 14:07:34;;;;;;;29.17;27.58;;;;;;;;;;5028514;28;20033;-58
2023/12/14 14:10:00;;;;;;;29.70;28.15;;;;;;;;;;5028307;28;20721;-58
2023/12/14 14:12:25;;;;;;;30.83;29.23;;;;;;;;;;5027683;28;20048;-59